createdAt,value
2022-08-30T00:06:46.150Z,17.7
2022-08-30T00:21:55.741Z,17.6
2022-08-30T00:37:04.877Z,17.5
2022-08-30T00:52:14.370Z,17.3
2022-08-30T01:07:22.969Z,17.1
2022-08-30T01:22:32.229Z,17
2022-08-30T01:37:41.391Z,16.9
2022-08-30T01:52:50.714Z,16.6
2022-08-30T02:07:59.746Z,16.5
2022-08-30T02:23:09.217Z,16.4
2022-08-30T02:38:18.900Z,16.3
2022-08-30T02:53:29.543Z,16.2
2022-08-30T03:08:40.420Z,16.1
2022-08-30T03:23:49.354Z,16.1
2022-08-30T03:38:58.563Z,16
2022-08-30T03:54:08.067Z,15.8
2022-08-30T04:09:17.047Z,15.8
2022-08-30T04:24:26.200Z,15.8
2022-08-30T04:39:35.300Z,15.8
2022-08-30T04:54:44.490Z,15.8
2022-08-30T05:09:54.016Z,15.8
2022-08-30T05:25:04.909Z,15.7
2022-08-30T05:40:14.159Z,15.8
2022-08-30T05:55:25.859Z,15.9
2022-08-30T06:10:35.588Z,16
2022-08-30T06:25:45.485Z,16.1
2022-08-30T06:40:55.077Z,16.1
2022-08-30T06:56:04.828Z,16.2
2022-08-30T07:11:14.078Z,16.3
2022-08-30T07:26:26.667Z,16.4
2022-08-30T07:41:36.261Z,16.5
2022-08-30T07:56:45.446Z,16.6
2022-08-30T08:11:55.223Z,16.8
2022-08-30T08:27:04.983Z,17
2022-08-30T08:42:14.434Z,17.2
2022-08-30T08:57:24.676Z,17.4
2022-08-30T09:12:34.389Z,17.5
2022-08-30T09:27:44.789Z,17.8
2022-08-30T09:42:55.914Z,17.9
2022-08-30T09:58:06.330Z,18
2022-08-30T10:13:15.870Z,18
2022-08-30T10:28:29.477Z,18.1
2022-08-30T10:43:39.109Z,18.5
2022-08-30T10:58:48.929Z,18.9
2022-08-30T11:14:04.959Z,19.3
2022-08-30T11:29:16.151Z,19.6
2022-08-30T11:44:27.155Z,20.2
2022-08-30T11:59:37.950Z,20.8
2022-08-30T12:14:49.384Z,23.2
2022-08-30T12:29:59.520Z,23.6
2022-08-30T12:45:09.084Z,24.3
2022-08-30T13:00:20.066Z,24.9
2022-08-30T13:15:30.812Z,25.8
2022-08-30T13:30:40.910Z,26.4
2022-08-30T13:45:51.078Z,26.9
2022-08-30T14:01:02.234Z,27.4
2022-08-30T14:16:27.950Z,28.1
2022-08-30T14:31:37.770Z,26.9
2022-08-30T14:46:47.399Z,26.5
2022-08-30T15:01:55.808Z,25.3
2022-08-30T15:17:05.077Z,26.1
2022-08-30T15:32:15.788Z,27.5
2022-08-30T15:47:27.405Z,26
2022-08-30T16:02:36.597Z,24.8
2022-08-30T16:17:48.520Z,24.2
2022-08-30T16:32:57.357Z,23.8
2022-08-30T16:48:06.608Z,23.4
2022-08-30T17:03:16.202Z,23
2022-08-30T17:18:30.211Z,22.7
2022-08-30T17:33:41.337Z,22.4
2022-08-30T17:48:56.664Z,22.1
2022-08-30T18:04:10.742Z,21.8
2022-08-30T18:19:20.872Z,21.6
2022-08-30T18:34:30.204Z,21.3
2022-08-30T18:49:39.299Z,21.1
2022-08-30T19:04:48.458Z,20.8
2022-08-30T19:19:57.586Z,20.6
2022-08-30T19:35:06.983Z,20.4
2022-08-30T19:50:16.876Z,20.2
2022-08-30T20:05:26.771Z,20
2022-08-30T20:20:36.918Z,19.8
2022-08-30T20:35:49.236Z,19.6
2022-08-30T20:50:59.230Z,19.4
2022-08-30T21:06:08.080Z,19.3
2022-08-30T21:21:17.637Z,19.1
2022-08-30T21:36:27.816Z,18.9
2022-08-30T21:51:36.875Z,18.8
2022-08-30T22:06:46.024Z,18.6
2022-08-30T22:22:00.745Z,18.6
2022-08-30T22:37:11.524Z,18.5
2022-08-30T22:52:21.259Z,18.3
2022-08-30T23:07:34.751Z,18.2
2022-08-30T23:22:44.092Z,18.1
2022-08-30T23:37:53.462Z,18
2022-08-30T23:53:02.215Z,18
